createdAt,value
2018-08-20T03:38:13.084Z,98444.55
2018-08-20T03:41:05.691Z,98441.10
2018-08-20T03:43:40.280Z,98450.15
2018-08-20T03:47:04.009Z,98443.47
2018-08-20T03:49:56.248Z,98449.77
2018-08-20T03:52:38.250Z,98441.39
2018-08-20T03:55:08.418Z,98454.76
2018-08-20T04:01:54.664Z,98464.57
2018-08-20T04:04:30.433Z,98460.72
2018-08-20T04:07:11.104Z,98454.65
2018-08-20T04:22:51.103Z,98460.81
2018-08-20T04:25:29.981Z,98449.91
2018-08-20T04:28:00.013Z,98447.15
2018-08-20T04:33:23.844Z,98439.98
2018-08-20T04:35:54.027Z,98437.48
2018-08-20T04:54:22.061Z,98437.84
2018-08-20T04:57:08.078Z,98439.08
2018-08-20T05:08:37.324Z,98425.00
2018-08-20T05:17:05.386Z,98444.03
2018-08-20T05:19:39.736Z,98442.81
2018-08-20T06:44:51.979Z,98507.86
2018-08-20T06:53:40.568Z,98502.67
2018-08-20T06:56:28.603Z,98509.11
2018-08-20T07:20:22.155Z,98509.69
2018-08-20T07:59:03.343Z,98530.96
2018-08-20T08:01:34.429Z,98537.34
2018-08-20T08:10:19.549Z,98543.34
2018-08-20T08:12:50.848Z,98544.25
2018-08-20T08:33:54.355Z,98554.58
2018-08-20T08:36:45.855Z,98553.20
2018-08-20T09:00:50.509Z,98559.93
2018-08-20T09:03:22.101Z,98559.24
2018-08-20T09:05:54.199Z,98556.75
2018-08-20T09:11:35.130Z,98568.55
2018-08-20T09:14:05.978Z,98557.39
2018-08-20T09:18:49.336Z,98558.25
2018-08-20T09:21:20.922Z,98563.02
2018-08-20T09:23:51.490Z,98572.17
2018-08-20T09:29:21.101Z,98572.86
2018-08-20T09:31:51.164Z,98568.09
2018-08-20T09:34:21.352Z,98567.13
2018-08-20T09:36:52.539Z,98566.84
2018-08-20T09:39:25.724Z,98568.19
2018-08-20T09:41:55.810Z,98558.80
2018-08-20T09:44:39.045Z,98563.50
2018-08-20T09:47:16.256Z,98549.98
2018-08-20T09:49:46.593Z,98555.88
2018-08-20T09:52:16.835Z,98542.61
2018-08-20T09:55:21.507Z,98546.56
2018-08-20T09:57:52.066Z,98538.70
2018-08-20T10:05:56.219Z,98537.99
2018-08-20T10:08:36.156Z,98539.72
2018-08-20T10:11:11.698Z,98540.28
2018-08-20T10:13:55.351Z,98528.34
2018-08-20T10:16:31.272Z,98529.03
2018-08-20T10:19:07.184Z,98532.90
2018-08-20T10:21:45.805Z,98529.23
2018-08-20T10:24:17.460Z,98523.80
2018-08-20T10:26:54.283Z,98520.32
2018-08-20T10:29:26.035Z,98520.00
2018-08-20T10:31:58.387Z,98517.66
2018-08-20T10:38:36.384Z,98516.34
2018-08-20T10:41:21.715Z,98507.64
2018-08-20T10:43:53.067Z,98510.66
2018-08-20T10:46:28.462Z,98512.95
2018-08-20T10:48:59.031Z,98506.11
2018-08-20T10:51:28.996Z,98500.28
2018-08-20T10:53:59.187Z,98498.72
2018-08-20T10:56:39.939Z,98501.13
2018-08-20T10:59:09.852Z,98495.85
2018-08-20T11:01:40.415Z,98494.50
2018-08-20T11:04:10.769Z,98501.13
2018-08-20T11:07:56.999Z,98505.91
2018-08-20T11:10:26.731Z,98494.67
2018-08-20T11:12:56.461Z,98497.88
2018-08-20T11:15:33.953Z,98503.59
2018-08-20T11:18:03.591Z,98494.99
2018-08-20T11:20:33.400Z,98491.36
2018-08-20T11:23:03.265Z,98491.77
2018-08-20T11:31:24.917Z,98484.27
2018-08-20T11:46:48.209Z,98469.55
2018-08-20T12:13:12.462Z,98435.94
2018-08-20T12:15:42.833Z,98425.16
2018-08-20T12:18:15.110Z,98430.21
2018-08-20T12:20:46.864Z,98425.02
2018-08-20T12:23:22.758Z,98427.41
2018-08-20T12:25:52.850Z,98419.42
2018-08-20T12:28:25.408Z,98423.23
2018-08-20T12:30:57.074Z,98412.23
2018-08-20T12:33:27.815Z,98420.81
2018-08-20T12:36:03.633Z,98415.16
2018-08-20T12:38:33.437Z,98412.17
2018-08-20T12:41:04.859Z,98409.54
2018-08-20T12:43:39.783Z,98404.16
2018-08-20T12:49:11.150Z,98409.38
2018-08-20T12:51:46.520Z,98404.52
2018-08-20T12:54:16.731Z,98402.84
2018-08-20T12:56:46.724Z,98405.45
2018-08-20T12:59:16.941Z,98407.07
2018-08-20T13:01:47.002Z,98406.44
2018-08-20T13:04:17.105Z,98404.80
2018-08-20T13:09:50.514Z,98392.59
2018-08-20T13:15:26.906Z,98389.35
2018-08-20T13:20:54.744Z,98381.08
2018-08-20T13:23:28.008Z,98381.58
2018-08-20T13:25:57.837Z,98385.17
2018-08-20T13:28:28.043Z,98384.66
2018-08-20T13:31:01.117Z,98385.88
2018-08-20T13:33:31.155Z,98376.95
2018-08-20T13:36:23.261Z,98378.50
2018-08-20T13:38:55.608Z,98372.72
2018-08-20T13:41:26.731Z,98390.61
2018-08-20T13:44:11.867Z,98390.39
2018-08-20T13:46:43.480Z,98384.22
2018-08-20T13:52:17.272Z,98390.91
2018-08-20T13:54:48.140Z,98398.16
2018-08-20T13:57:20.011Z,98385.25
2018-08-20T13:59:53.402Z,98389.14
2018-08-20T14:08:41.125Z,98361.95
2018-08-20T14:14:27.834Z,98359.84
2018-08-20T14:17:18.407Z,98374.75
2018-08-20T14:19:48.456Z,98381.59
2018-08-20T14:25:01.906Z,98394.27
2018-08-20T14:27:32.857Z,98398.80
2018-08-20T14:30:03.007Z,98389.98
2018-08-20T14:36:36.441Z,98390.27
2018-08-20T14:39:08.074Z,98386.34
2018-08-20T14:41:39.715Z,98380.27
2018-08-20T14:44:09.326Z,98381.59
2018-08-20T14:46:39.939Z,98367.97
2018-08-20T14:49:09.817Z,98365.36
2018-08-20T14:51:39.512Z,98386.20
2018-08-20T14:54:09.683Z,98372.79
2018-08-20T14:56:46.118Z,98384.28
2018-08-20T14:59:16.179Z,98389.75
2018-08-20T15:01:45.959Z,98372.94
2018-08-20T15:04:16.789Z,98365.72
2018-08-20T15:06:57.623Z,98359.22
2018-08-20T15:09:28.459Z,98361.05
2018-08-20T15:11:58.862Z,98356.11
2018-08-20T15:14:29.309Z,98350.64
2018-08-20T15:16:59.367Z,98346.99
2018-08-20T15:19:29.529Z,98352.05
2018-08-20T15:21:59.277Z,98364.35
2018-08-20T15:24:29.835Z,98359.30
2018-08-20T15:27:02.881Z,98358.58
2018-08-20T15:29:32.394Z,98355.77
2018-08-20T15:32:02.074Z,98367.56
2018-08-20T15:34:39.299Z,98353.93
2018-08-20T15:37:08.858Z,98357.34
2018-08-20T15:39:44.969Z,98359.19
2018-08-20T15:42:14.594Z,98369.48
2018-08-20T15:44:44.631Z,98359.72
2018-08-20T15:47:14.501Z,98365.88
2018-08-20T15:49:46.602Z,98361.72
2018-08-20T15:52:16.496Z,98367.67
2018-08-20T15:54:46.138Z,98358.09
2018-08-20T15:57:19.416Z,98361.16
2018-08-20T15:59:53.411Z,98365.44
2018-08-20T16:02:22.994Z,98362.73
2018-08-20T16:04:55.177Z,98362.35
2018-08-20T16:07:25.126Z,98368.95
2018-08-20T16:09:54.957Z,98362.58
2018-08-20T16:12:25.040Z,98355.76
2018-08-20T16:14:54.643Z,98355.17
2018-08-20T16:17:24.662Z,98355.30
2018-08-20T16:19:55.055Z,98352.30
2018-08-20T16:22:25.974Z,98352.09
2018-08-20T16:24:58.930Z,98340.00
2018-08-20T16:27:32.333Z,98336.58
2018-08-20T16:30:02.499Z,98332.34
2018-08-20T16:32:32.012Z,98337.95
2018-08-20T16:35:02.872Z,98328.98
2018-08-20T16:37:36.078Z,98336.39
2018-08-20T16:40:07.690Z,98313.53
2018-08-20T16:43:02.928Z,98315.81
2018-08-20T16:45:33.106Z,98322.67
2018-08-20T16:48:06.316Z,98311.13
2018-08-20T16:50:36.455Z,98297.77
2018-08-20T16:53:06.604Z,98318.80
2018-08-20T16:55:36.245Z,98325.80
2018-08-20T16:58:07.362Z,98311.50
2018-08-20T17:00:36.972Z,98314.97
2018-08-20T17:03:24.849Z,98317.05
2018-08-20T17:05:57.065Z,98306.14
2018-08-20T17:08:40.255Z,98305.93
2018-08-20T17:11:11.146Z,98305.07
2018-08-20T17:13:41.932Z,98309.66
2018-08-20T17:16:14.045Z,98307.37
2018-08-20T17:18:44.434Z,98306.93
2018-08-20T17:21:14.391Z,98310.13
2018-08-20T17:23:45.000Z,98303.62
2018-08-20T17:26:30.716Z,98316.58
2018-08-20T17:29:08.443Z,98312.83
2018-08-20T17:31:39.411Z,98300.38
2018-08-20T17:34:53.217Z,98313.14
2018-08-20T17:37:23.558Z,98309.09
2018-08-20T17:40:06.669Z,98318.36
2018-08-20T17:42:38.595Z,98315.44
2018-08-20T17:45:11.031Z,98322.72
2018-08-20T17:47:42.082Z,98322.33
2018-08-20T17:53:05.146Z,98319.41
2018-08-20T17:55:37.723Z,98321.65
2018-08-20T17:58:23.380Z,98323.11
2018-08-20T18:00:54.552Z,98325.45
2018-08-20T18:03:31.216Z,98328.06
2018-08-20T18:06:04.336Z,98325.06
2018-08-20T18:08:36.310Z,98320.86
2018-08-20T18:11:08.158Z,98330.20
2018-08-20T18:13:50.281Z,98331.64
2018-08-20T18:19:15.558Z,98340.32
2018-08-20T18:21:46.422Z,98334.41
2018-08-20T18:24:18.468Z,98335.78
2018-08-20T18:26:57.636Z,98338.57
2018-08-20T18:29:28.817Z,98339.20
2018-08-20T18:32:01.917Z,98342.72
2018-08-20T18:34:34.409Z,98340.30
2018-08-20T18:37:05.326Z,98349.70
2018-08-20T18:42:32.236Z,98348.00
2018-08-20T18:45:03.444Z,98350.23
2018-08-20T18:47:47.315Z,98359.12
2018-08-20T18:50:23.899Z,98363.58
2018-08-20T18:53:00.339Z,98364.95
2018-08-20T18:55:33.226Z,98365.34
2018-08-20T18:58:05.113Z,98372.77
2018-08-20T19:03:14.398Z,98372.48
2018-08-20T19:05:50.362Z,98375.88
2018-08-20T19:08:30.380Z,98376.58
2018-08-20T19:11:06.879Z,98382.62
2018-08-20T19:13:38.296Z,98387.18
2018-08-20T19:19:51.073Z,98389.78
2018-08-20T19:22:29.050Z,98390.16
2018-08-20T19:25:04.148Z,98387.33
2018-08-20T19:27:36.109Z,98385.67
2018-08-20T19:30:16.944Z,98381.53
2018-08-20T19:33:01.742Z,98392.37
2018-08-20T19:35:32.426Z,98389.91
2018-08-20T19:38:03.004Z,98394.08
2018-08-20T19:40:35.819Z,98389.91
2018-08-20T19:43:08.904Z,98390.90
2018-08-20T19:48:54.523Z,98385.19
2018-08-20T19:51:30.046Z,98392.86
2018-08-20T19:59:05.368Z,98383.34
2018-08-20T20:01:35.959Z,98388.20
2018-08-20T20:07:16.026Z,98390.83
2018-08-20T20:12:58.069Z,98401.82
2018-08-20T20:15:42.668Z,98403.63
2018-08-20T20:18:13.172Z,98401.78
2018-08-20T20:21:03.554Z,98407.09
2018-08-20T20:23:35.110Z,98407.91
2018-08-20T20:41:31.287Z,98429.26
2018-08-20T20:46:58.589Z,98430.87
2018-08-20T20:49:40.596Z,98436.66
2018-08-20T20:52:30.668Z,98435.78
2018-08-20T20:55:14.631Z,98437.77
2018-08-20T21:04:02.669Z,98439.88
2018-08-20T21:09:53.453Z,98443.91
2018-08-20T21:12:34.932Z,98446.27
2018-08-20T21:38:41.025Z,98447.91
2018-08-20T21:41:24.912Z,98452.75
2018-08-20T21:49:01.630Z,98450.94
2018-08-20T21:51:46.247Z,98443.20
2018-08-20T22:09:20.250Z,98463.88
2018-08-20T22:11:56.806Z,98470.04
2018-08-20T22:20:51.412Z,98485.02
2018-08-20T22:57:30.813Z,98491.83
2018-08-20T23:00:33.653Z,98492.60
2018-08-20T23:03:08.202Z,98497.23
2018-08-20T23:05:43.681Z,98507.22
2018-08-20T23:08:18.929Z,98512.77
2018-08-20T23:10:53.173Z,98506.86
2018-08-20T23:13:27.664Z,98511.57
2018-08-20T23:16:04.135Z,98514.91
2018-08-20T23:18:40.362Z,98510.92
2018-08-20T23:21:14.245Z,98509.81
2018-08-20T23:23:44.661Z,98513.27
2018-08-20T23:26:17.916Z,98511.42
2018-08-20T23:29:09.191Z,98507.23
2018-08-20T23:31:50.702Z,98508.59
2018-08-20T23:34:21.798Z,98511.53
2018-08-20T23:36:53.379Z,98509.84
2018-08-20T23:39:24.342Z,98504.05
2018-08-20T23:41:54.743Z,98502.12
2018-08-20T23:44:25.931Z,98505.93
2018-08-20T23:47:44.742Z,98509.98
2018-08-20T23:50:15.888Z,98505.95
2018-08-20T23:52:46.660Z,98507.97
2018-08-20T23:55:16.733Z,98507.63
2018-08-20T23:57:47.564Z,98508.02
